createdAt,value
2022-12-25T00:00:21.004Z,6.24
2022-12-25T00:02:53.230Z,6.42
2022-12-25T00:05:24.430Z,6.32
2022-12-25T00:07:54.843Z,6.33
2022-12-25T00:10:24.764Z,6.51
2022-12-25T00:12:54.983Z,6.09
2022-12-25T00:15:24.989Z,6.17
2022-12-25T00:17:56.355Z,6.42
2022-12-25T00:20:27.456Z,5.97
2022-12-25T00:22:57.782Z,6.47
2022-12-25T00:25:27.582Z,5.72
2022-12-25T00:27:57.922Z,5.84
2022-12-25T00:30:28.094Z,6.19
2022-12-25T00:32:59.688Z,6.29
2022-12-25T00:35:29.629Z,6.23
2022-12-25T00:37:59.398Z,6.12
2022-12-25T00:40:29.323Z,6.29
2022-12-25T00:42:59.428Z,5.82
2022-12-25T00:45:29.516Z,6.13
2022-12-25T00:48:01.162Z,6.12
2022-12-25T00:50:31.033Z,6.40
2022-12-25T00:53:00.904Z,6.52
2022-12-25T00:55:32.525Z,6.31
2022-12-25T00:58:02.981Z,6.47
2022-12-25T01:00:33.238Z,6.37
2022-12-25T01:03:05.310Z,6.21
2022-12-25T01:05:36.135Z,6.07
2022-12-25T01:08:07.087Z,6.16
2022-12-25T01:10:36.481Z,6.07
2022-12-25T01:13:06.847Z,6.23
2022-12-25T01:15:37.251Z,6.50
2022-12-25T01:18:11.586Z,6.35
2022-12-25T01:20:42.968Z,6.34
2022-12-25T01:23:13.576Z,6.41
2022-12-25T01:25:43.980Z,6.32
2022-12-25T01:28:13.860Z,6.03
2022-12-25T01:30:50.784Z,6.22
2022-12-25T01:33:22.462Z,6.32
2022-12-25T01:35:52.678Z,6.39
2022-12-25T01:38:23.238Z,6.28
2022-12-25T01:40:53.393Z,6.12
2022-12-25T01:43:27.149Z,5.93
2022-12-25T01:45:57.904Z,6.34
2022-12-25T01:48:32.051Z,6.54
2022-12-25T01:51:05.862Z,6.52
2022-12-25T01:53:36.527Z,6.51
2022-12-25T01:56:08.740Z,6.59
2022-12-25T01:58:39.368Z,6.71
2022-12-25T02:01:09.724Z,6.76
2022-12-25T02:03:44.012Z,6.14
2022-12-25T02:06:14.037Z,6.33
2022-12-25T02:08:45.393Z,6.54
2022-12-25T02:11:35.567Z,6.49
2022-12-25T02:14:06.186Z,6.33
2022-12-25T02:16:57.266Z,6.56
2022-12-25T02:19:54.027Z,6.44
2022-12-25T02:22:30.601Z,6.60
2022-12-25T02:25:08.456Z,6.62
2022-12-25T02:28:12.032Z,6.66
2022-12-25T02:30:47.132Z,6.53
2022-12-25T02:33:35.593Z,6.39
2022-12-25T02:36:09.323Z,6.42
2022-12-25T02:39:02.181Z,6.40
2022-12-25T02:41:32.974Z,6.41
2022-12-25T02:44:25.266Z,6.46
2022-12-25T02:47:13.372Z,6.55
2022-12-25T02:50:01.669Z,6.61
2022-12-25T02:52:49.997Z,6.44
2022-12-25T02:55:40.207Z,6.57
2022-12-25T02:58:31.909Z,6.39
2022-12-25T03:01:23.391Z,6.31
2022-12-25T03:04:13.263Z,6.39
2022-12-25T03:06:47.371Z,6.51
2022-12-25T03:09:39.017Z,6.57
2022-12-25T03:12:15.214Z,6.52
2022-12-25T03:15:03.504Z,6.58
2022-12-25T03:17:35.944Z,6.30
2022-12-25T03:20:24.624Z,6.30
2022-12-25T03:23:09.629Z,6.24
2022-12-25T03:25:57.377Z,6.13
2022-12-25T03:28:29.311Z,5.91
2022-12-25T03:31:11.703Z,5.95
2022-12-25T03:34:27.855Z,5.82
2022-12-25T03:37:29.443Z,5.74
2022-12-25T03:40:22.562Z,5.99
2022-12-25T03:43:13.884Z,5.98
2022-12-25T03:46:07.221Z,5.78
2022-12-25T03:48:56.334Z,5.58
2022-12-25T03:51:49.676Z,5.33
2022-12-25T03:54:40.411Z,5.38
2022-12-25T03:57:28.061Z,5.47
2022-12-25T04:00:15.954Z,5.41
2022-12-25T04:03:03.343Z,5.18
2022-12-25T04:06:06.045Z,5.32
2022-12-25T04:08:54.275Z,5.52
2022-12-25T04:11:41.467Z,5.31
2022-12-25T04:14:28.213Z,5.00
2022-12-25T04:17:15.634Z,5.17
2022-12-25T04:20:02.672Z,5.36
2022-12-25T04:22:49.165Z,5.44
2022-12-25T04:25:38.405Z,5.36
2022-12-25T04:28:25.711Z,5.47
2022-12-25T04:31:13.636Z,5.55
2022-12-25T04:34:01.027Z,5.58
2022-12-25T04:36:31.046Z,5.59
2022-12-25T04:39:01.102Z,5.71
2022-12-25T04:41:33.844Z,5.69
2022-12-25T04:44:04.230Z,5.70
2022-12-25T04:46:34.042Z,5.69
2022-12-25T04:49:03.811Z,5.77
2022-12-25T04:51:34.015Z,5.69
2022-12-25T04:54:03.720Z,5.65
2022-12-25T04:56:41.701Z,5.59
2022-12-25T04:59:16.081Z,5.39
2022-12-25T05:01:45.940Z,5.51
2022-12-25T05:04:15.780Z,5.44
2022-12-25T05:06:46.165Z,5.44
2022-12-25T05:09:16.651Z,5.26
2022-12-25T05:11:48.373Z,5.27
2022-12-25T05:14:18.826Z,5.33
2022-12-25T05:16:49.357Z,5.31
2022-12-25T05:19:19.520Z,5.32
2022-12-25T05:21:49.868Z,5.29
2022-12-25T05:24:19.390Z,4.95
2022-12-25T05:26:50.902Z,4.90
2022-12-25T05:29:20.850Z,4.76
2022-12-25T05:31:51.110Z,4.81
2022-12-25T05:34:22.165Z,4.95
2022-12-25T05:36:52.355Z,4.60
2022-12-25T05:39:23.142Z,4.96
2022-12-25T05:41:54.646Z,4.76
2022-12-25T05:44:25.416Z,4.80
2022-12-25T05:46:55.583Z,4.63
2022-12-25T05:49:26.418Z,4.94
2022-12-25T05:51:58.001Z,4.75
2022-12-25T05:54:28.033Z,4.74
2022-12-25T05:56:59.199Z,4.76
2022-12-25T05:59:32.578Z,4.81
2022-12-25T06:02:03.306Z,4.76
2022-12-25T06:04:33.729Z,4.50
2022-12-25T06:07:04.676Z,4.64
2022-12-25T06:09:35.560Z,4.76
2022-12-25T06:12:06.969Z,4.95
2022-12-25T06:14:37.596Z,4.77
2022-12-25T06:17:07.630Z,4.70
2022-12-25T06:19:38.081Z,4.75
2022-12-25T06:22:08.004Z,4.82
2022-12-25T06:24:39.155Z,4.36
2022-12-25T06:27:13.446Z,4.41
2022-12-25T06:29:43.900Z,4.59
2022-12-25T06:32:14.313Z,4.77
2022-12-25T06:34:44.905Z,4.66
2022-12-25T06:37:15.422Z,4.46
2022-12-25T06:39:45.440Z,4.43
2022-12-25T06:42:16.354Z,4.43
2022-12-25T06:44:46.236Z,4.28
2022-12-25T06:47:16.309Z,4.57
2022-12-25T06:49:47.009Z,4.49
2022-12-25T06:52:17.883Z,4.53
2022-12-25T06:54:49.581Z,4.46
2022-12-25T06:57:21.083Z,4.75
2022-12-25T06:59:55.144Z,4.75
2022-12-25T07:02:26.409Z,4.71
2022-12-25T07:04:57.198Z,4.79
2022-12-25T07:07:27.143Z,4.92
2022-12-25T07:09:57.224Z,4.90
2022-12-25T07:12:28.944Z,5.09
2022-12-25T07:14:59.646Z,5.14
2022-12-25T07:17:29.934Z,4.64
2022-12-25T07:20:00.173Z,4.63
2022-12-25T07:22:32.059Z,4.75
2022-12-25T07:25:02.845Z,4.90
2022-12-25T07:27:35.268Z,5.09
2022-12-25T07:30:06.073Z,5.22
2022-12-25T07:32:35.808Z,5.10
2022-12-25T07:35:06.456Z,5.18
2022-12-25T07:37:36.475Z,5.38
2022-12-25T07:40:11.015Z,5.32
2022-12-25T07:42:42.853Z,5.50
2022-12-25T07:45:13.458Z,5.21
2022-12-25T07:47:43.125Z,5.28
2022-12-25T07:50:13.670Z,5.51
2022-12-25T07:52:44.082Z,5.58
2022-12-25T07:55:14.478Z,5.61
2022-12-25T07:57:46.519Z,5.38
2022-12-25T08:00:20.254Z,5.62
2022-12-25T08:02:52.596Z,5.78
2022-12-25T08:05:23.180Z,5.79
2022-12-25T08:07:57.714Z,5.73
2022-12-25T08:10:28.510Z,5.77
2022-12-25T08:13:00.010Z,5.82
2022-12-25T08:15:30.198Z,5.95
2022-12-25T08:18:04.158Z,5.68
2022-12-25T08:20:35.108Z,5.84
2022-12-25T08:23:05.268Z,5.71
2022-12-25T08:25:35.878Z,5.36
2022-12-25T08:28:07.087Z,5.38
2022-12-25T08:30:37.586Z,5.70
2022-12-25T08:33:07.582Z,5.81
2022-12-25T08:35:37.449Z,5.82
2022-12-25T08:38:07.363Z,5.87
2022-12-25T08:40:37.430Z,5.73
2022-12-25T08:43:09.619Z,5.99
2022-12-25T08:45:39.543Z,5.08
2022-12-25T08:48:09.424Z,5.91
2022-12-25T08:50:40.225Z,6.06
2022-12-25T08:53:10.356Z,6.01
2022-12-25T08:55:40.960Z,6.06
2022-12-25T08:58:14.834Z,5.73
2022-12-25T09:00:44.437Z,5.73
2022-12-25T09:03:14.366Z,6.11
2022-12-25T09:05:45.095Z,5.81
2022-12-25T09:08:15.146Z,6.38
2022-12-25T09:10:45.633Z,6.29
2022-12-25T09:13:18.038Z,6.36
2022-12-25T09:15:49.097Z,6.43
2022-12-25T09:18:19.759Z,6.49
2022-12-25T09:20:49.931Z,6.41
2022-12-25T09:23:19.961Z,6.53
2022-12-25T09:25:50.000Z,6.41
2022-12-25T09:28:21.679Z,6.25
2022-12-25T09:30:53.086Z,6.27
2022-12-25T09:33:23.693Z,6.31
2022-12-25T09:35:57.214Z,6.47
2022-12-25T09:38:27.782Z,6.82
2022-12-25T09:41:03.294Z,6.68
2022-12-25T09:43:39.788Z,6.22
2022-12-25T09:46:15.338Z,6.76
2022-12-25T09:48:50.230Z,6.76
2022-12-25T09:51:21.789Z,6.61
2022-12-25T09:53:56.213Z,6.63
2022-12-25T09:56:27.512Z,7.03
2022-12-25T09:58:58.840Z,7.17
2022-12-25T10:01:33.996Z,6.97
2022-12-25T10:04:21.089Z,7.15
2022-12-25T10:07:02.908Z,7.08
2022-12-25T10:09:48.207Z,7.11
2022-12-25T10:12:31.793Z,7.32
2022-12-25T10:15:14.187Z,7.41
2022-12-25T10:17:56.769Z,7.53
2022-12-25T10:20:36.294Z,7.45
2022-12-25T10:23:07.716Z,7.55
2022-12-25T10:25:41.541Z,7.69
2022-12-25T10:28:15.704Z,7.95
2022-12-25T10:30:47.631Z,8.04
2022-12-25T10:33:22.024Z,8.15
2022-12-25T10:35:52.249Z,8.28
2022-12-25T10:38:22.255Z,8.54
2022-12-25T10:41:02.740Z,8.46
2022-12-25T10:43:37.902Z,8.52
2022-12-25T10:46:14.253Z,8.76
2022-12-25T10:48:46.034Z,9.32
2022-12-25T10:51:16.017Z,9.29
2022-12-25T10:53:46.531Z,9.19
2022-12-25T10:56:19.103Z,9.06
2022-12-25T10:58:50.150Z,9.08
2022-12-25T11:01:22.064Z,9.62
2022-12-25T11:03:54.699Z,10.11
2022-12-25T11:06:26.356Z,10.55
2022-12-25T11:08:58.528Z,10.68
2022-12-25T11:11:30.331Z,10.54
2022-12-25T11:14:02.131Z,10.48
2022-12-25T11:16:36.363Z,11.22
2022-12-25T11:19:07.429Z,10.83
2022-12-25T11:21:40.951Z,10.81
2022-12-25T11:24:22.046Z,11.00
2022-12-25T11:26:53.964Z,11.22
2022-12-25T11:29:28.108Z,10.51
2022-12-25T11:32:01.904Z,10.63
2022-12-25T11:34:34.313Z,10.84
2022-12-25T11:37:05.435Z,10.99
2022-12-25T11:39:37.348Z,11.02
2022-12-25T11:42:12.198Z,10.94
2022-12-25T11:44:47.449Z,11.23
2022-12-25T11:47:23.610Z,11.11
2022-12-25T11:50:00.738Z,11.04
2022-12-25T11:52:35.850Z,10.89
2022-12-25T11:55:09.599Z,11.32
2022-12-25T11:57:40.759Z,10.93
2022-12-25T12:00:13.177Z,10.82
2022-12-25T12:02:49.828Z,10.80
2022-12-25T12:05:24.352Z,10.83
2022-12-25T12:07:59.812Z,10.79
2022-12-25T12:10:36.491Z,10.95
2022-12-25T12:13:20.854Z,10.96
2022-12-25T12:15:52.154Z,10.88
2022-12-25T12:18:29.927Z,10.94
2022-12-25T12:21:02.069Z,10.90
2022-12-25T12:23:33.924Z,10.79
2022-12-25T12:26:04.928Z,10.83
2022-12-25T12:28:46.436Z,10.74
2022-12-25T12:31:16.727Z,10.84
2022-12-25T12:33:55.236Z,11.03
2022-12-25T12:36:35.565Z,11.30
2022-12-25T12:39:07.678Z,10.94
2022-12-25T12:41:47.485Z,11.04
2022-12-25T12:44:19.063Z,10.81
2022-12-25T12:46:57.179Z,11.02
2022-12-25T12:49:29.317Z,10.94
2022-12-25T12:52:07.137Z,11.14
2022-12-25T12:54:53.998Z,11.20
2022-12-25T12:57:29.058Z,11.34
2022-12-25T13:00:04.703Z,11.36
2022-12-25T13:03:15.312Z,11.19
2022-12-25T13:05:48.646Z,11.12
2022-12-25T13:08:31.235Z,11.08
2022-12-25T13:11:09.492Z,11.06
2022-12-25T13:13:42.655Z,11.04
2022-12-25T13:16:21.495Z,11.05
2022-12-25T13:18:53.249Z,10.92
2022-12-25T13:21:26.893Z,10.93
2022-12-25T13:24:02.075Z,11.00
2022-12-25T13:26:32.521Z,10.94
2022-12-25T13:29:07.824Z,11.12
2022-12-25T13:31:43.657Z,11.20
2022-12-25T13:34:26.413Z,11.05
2022-12-25T13:36:58.700Z,10.98
2022-12-25T13:39:29.367Z,10.93
2022-12-25T13:42:10.273Z,10.89
2022-12-25T13:44:46.387Z,10.80
2022-12-25T13:47:23.116Z,10.83
2022-12-25T13:49:56.014Z,10.84
2022-12-25T13:52:34.427Z,11.06
2022-12-25T13:55:06.835Z,10.86
2022-12-25T13:57:39.229Z,11.07
2022-12-25T14:00:18.155Z,10.77
2022-12-25T14:02:48.786Z,10.72
2022-12-25T14:05:27.483Z,10.76
2022-12-25T14:08:00.792Z,10.76
2022-12-25T14:10:32.523Z,10.83
2022-12-25T14:13:04.066Z,10.62
2022-12-25T14:15:36.794Z,10.72
2022-12-25T14:18:06.835Z,10.54
2022-12-25T14:20:41.114Z,10.42
2022-12-25T14:23:14.738Z,10.36
2022-12-25T14:25:46.985Z,10.32
2022-12-25T14:28:20.730Z,10.21
2022-12-25T14:30:51.036Z,10.15
2022-12-25T14:33:23.805Z,10.11
2022-12-25T14:35:55.068Z,9.96
2022-12-25T14:38:29.453Z,9.89
2022-12-25T14:41:03.304Z,9.78
2022-12-25T14:43:35.150Z,9.74
2022-12-25T14:46:08.525Z,9.67
2022-12-25T14:48:38.840Z,9.53
2022-12-25T14:51:11.291Z,9.56
2022-12-25T14:53:50.090Z,9.70
2022-12-25T14:56:22.618Z,9.59
2022-12-25T14:58:56.561Z,9.59
2022-12-25T15:01:31.348Z,9.52
2022-12-25T15:04:09.733Z,9.18
2022-12-25T15:06:42.622Z,8.98
2022-12-25T15:09:19.241Z,8.82
2022-12-25T15:11:50.587Z,8.69
2022-12-25T15:14:20.735Z,8.67
2022-12-25T15:16:52.095Z,8.73
2022-12-25T15:19:26.639Z,8.59
2022-12-25T15:22:00.136Z,8.43
2022-12-25T15:24:31.749Z,8.42
2022-12-25T15:27:02.179Z,8.29
2022-12-25T15:30:07.970Z,8.34
2022-12-25T15:32:24.847Z,8.20
2022-12-25T15:34:54.699Z,8.23
2022-12-25T15:37:24.956Z,8.30
2022-12-25T15:39:57.639Z,8.20
2022-12-25T15:42:28.528Z,8.09
2022-12-25T15:44:58.151Z,8.00
2022-12-25T15:47:28.156Z,8.19
2022-12-25T15:49:58.357Z,7.98
2022-12-25T15:52:28.969Z,7.97
2022-12-25T15:55:01.186Z,7.65
2022-12-25T15:57:34.044Z,7.54
2022-12-25T16:00:04.676Z,7.68
2022-12-25T16:02:35.312Z,7.92
2022-12-25T16:05:10.343Z,7.75
2022-12-25T16:07:42.428Z,7.97
2022-12-25T16:10:18.394Z,8.12
2022-12-25T16:12:48.675Z,7.96
2022-12-25T16:15:18.849Z,7.73
2022-12-25T16:17:49.409Z,7.47
2022-12-25T16:20:19.279Z,7.46
2022-12-25T16:22:49.465Z,7.77
2022-12-25T16:25:22.679Z,7.48
2022-12-25T16:27:52.820Z,7.64
2022-12-25T16:30:23.541Z,7.53
2022-12-25T16:32:54.693Z,7.59
2022-12-25T16:35:24.365Z,7.38
2022-12-25T16:37:54.736Z,7.16
2022-12-25T16:40:26.621Z,7.39
2022-12-25T16:42:58.173Z,7.35
2022-12-25T16:45:27.769Z,7.15
2022-12-25T16:47:59.003Z,7.05
2022-12-25T16:50:29.041Z,7.12
2022-12-25T16:52:59.636Z,6.97
2022-12-25T16:55:31.129Z,7.17
2022-12-25T16:58:01.057Z,7.21
2022-12-25T17:00:31.285Z,7.01
2022-12-25T17:03:02.642Z,6.83
2022-12-25T17:05:34.983Z,6.71
2022-12-25T17:08:05.024Z,6.96
2022-12-25T17:10:39.489Z,7.00
2022-12-25T17:13:09.074Z,6.88
2022-12-25T17:15:43.916Z,7.11
2022-12-25T17:18:22.657Z,6.48
2022-12-25T17:20:53.064Z,6.64
2022-12-25T17:23:22.960Z,6.58
2022-12-25T17:25:54.529Z,6.72
2022-12-25T17:28:25.659Z,6.71
2022-12-25T17:30:56.307Z,6.23
2022-12-25T17:33:26.614Z,6.55
2022-12-25T17:36:03.411Z,6.56
2022-12-25T17:38:34.660Z,6.17
2022-12-25T17:41:07.779Z,6.32
2022-12-25T17:43:40.723Z,5.86
2022-12-25T17:46:12.970Z,6.14
2022-12-25T17:48:43.764Z,5.96
2022-12-25T17:51:16.331Z,5.98
2022-12-25T17:53:48.982Z,6.15
2022-12-25T17:56:22.009Z,5.98
2022-12-25T17:58:53.068Z,6.14
2022-12-25T18:01:23.988Z,6.01
2022-12-25T18:03:54.292Z,5.88
2022-12-25T18:06:28.607Z,5.94
2022-12-25T18:09:00.554Z,5.94
2022-12-25T18:11:33.607Z,5.94
2022-12-25T18:14:08.568Z,6.01
2022-12-25T18:16:40.638Z,5.68
2022-12-25T18:19:11.604Z,5.49
2022-12-25T18:21:42.150Z,5.62
2022-12-25T18:24:12.603Z,5.79
2022-12-25T18:26:44.658Z,5.70
2022-12-25T18:29:14.864Z,5.73
2022-12-25T18:31:44.989Z,5.96
2022-12-25T18:34:15.286Z,5.62
2022-12-25T18:36:45.142Z,5.49
2022-12-25T18:39:16.404Z,5.83
2022-12-25T18:42:04.720Z,5.51
2022-12-25T18:44:34.991Z,5.53
2022-12-25T18:47:05.140Z,5.38
2022-12-25T18:49:35.172Z,5.49
2022-12-25T18:52:49.456Z,5.46
2022-12-25T18:54:58.587Z,5.70
2022-12-25T18:57:32.457Z,5.82
2022-12-25T19:00:03.019Z,5.57
2022-12-25T19:02:34.024Z,5.35
2022-12-25T19:05:05.863Z,5.57
2022-12-25T19:07:35.928Z,5.26
2022-12-25T19:10:06.906Z,5.32
2022-12-25T19:12:39.133Z,5.55
2022-12-25T19:15:10.693Z,5.54
2022-12-25T19:17:40.832Z,5.52
2022-12-25T19:20:12.572Z,5.39
2022-12-25T19:22:42.999Z,5.61
2022-12-25T19:25:12.807Z,5.41
2022-12-25T19:27:45.159Z,5.42
2022-12-25T19:30:15.970Z,5.44
2022-12-25T19:32:46.068Z,5.38
2022-12-25T19:35:15.777Z,5.57
2022-12-25T19:37:45.689Z,5.71
2022-12-25T19:40:15.906Z,5.71
2022-12-25T19:42:47.024Z,5.51
2022-12-25T19:45:17.568Z,5.35
2022-12-25T19:47:48.575Z,5.48
2022-12-25T19:50:19.925Z,5.29
2022-12-25T19:52:51.224Z,5.33
2022-12-25T19:55:22.505Z,5.40
2022-12-25T19:57:55.627Z,5.28
2022-12-25T20:00:25.925Z,5.47
2022-12-25T20:02:56.911Z,5.45
2022-12-25T20:05:27.805Z,5.28
2022-12-25T20:07:58.803Z,5.32
2022-12-25T20:10:30.353Z,5.37
2022-12-25T20:13:01.935Z,5.43
2022-12-25T20:15:32.493Z,5.25
2022-12-25T20:18:03.030Z,5.28
2022-12-25T20:20:33.391Z,5.11
2022-12-25T20:23:04.224Z,4.97
2022-12-25T20:25:35.145Z,5.00
2022-12-25T20:28:08.449Z,5.07
2022-12-25T20:30:41.134Z,5.17
2022-12-25T20:33:12.103Z,4.99
2022-12-25T20:35:47.723Z,5.17
2022-12-25T20:38:18.357Z,5.03
2022-12-25T20:41:25.269Z,5.02
2022-12-25T20:43:45.342Z,4.88
2022-12-25T20:46:16.372Z,5.10
2022-12-25T20:48:46.830Z,5.04
2022-12-25T20:51:19.558Z,5.45
2022-12-25T20:53:51.451Z,5.14
2022-12-25T20:56:23.824Z,4.89
2022-12-25T20:58:57.697Z,5.16
2022-12-25T21:01:29.267Z,4.86
2022-12-25T21:04:00.428Z,4.81
2022-12-25T21:06:30.839Z,5.15
2022-12-25T21:09:01.475Z,4.93
2022-12-25T21:11:33.204Z,5.11
2022-12-25T21:14:06.166Z,5.00
2022-12-25T21:16:36.934Z,5.02
2022-12-25T21:19:07.195Z,4.73
2022-12-25T21:21:42.861Z,4.92
2022-12-25T21:24:12.911Z,4.77
2022-12-25T21:26:48.000Z,5.00
2022-12-25T21:29:23.948Z,4.89
2022-12-25T21:32:12.979Z,4.97
2022-12-25T21:34:43.544Z,4.80
2022-12-25T21:37:14.128Z,4.61
2022-12-25T21:39:45.404Z,4.87
2022-12-25T21:42:16.449Z,4.93
2022-12-25T21:44:51.288Z,5.02
2022-12-25T21:47:20.764Z,5.07
2022-12-25T21:50:08.471Z,5.04
2022-12-25T21:52:40.093Z,4.57
2022-12-25T21:55:10.860Z,4.92
2022-12-25T21:57:41.863Z,4.70
2022-12-25T22:00:17.079Z,4.53
2022-12-25T22:02:50.116Z,4.46
2022-12-25T22:05:34.189Z,4.69
2022-12-25T22:08:04.993Z,4.75
2022-12-25T22:10:38.393Z,4.79
2022-12-25T22:13:29.418Z,4.64
2022-12-25T22:16:25.796Z,4.53
2022-12-25T22:19:14.345Z,4.19
2022-12-25T22:21:43.738Z,4.57
2022-12-25T22:24:14.846Z,4.44
2022-12-25T22:26:46.509Z,4.67
2022-12-25T22:29:17.589Z,4.78
2022-12-25T22:31:49.629Z,4.68
2022-12-25T22:34:20.272Z,4.20
2022-12-25T22:36:50.420Z,4.30
2022-12-25T22:39:20.116Z,4.47
2022-12-25T22:41:49.833Z,4.58
2022-12-25T22:44:19.721Z,4.06
2022-12-25T22:46:51.560Z,4.34
2022-12-25T22:49:21.695Z,4.09
2022-12-25T22:51:53.523Z,4.29
2022-12-25T22:54:24.266Z,4.47
2022-12-25T22:56:55.442Z,4.48
2022-12-25T22:59:25.869Z,4.29
2022-12-25T23:01:57.427Z,4.33
2022-12-25T23:04:27.468Z,4.46
2022-12-25T23:06:57.924Z,4.45
2022-12-25T23:09:29.551Z,4.11
2022-12-25T23:12:01.651Z,4.04
2022-12-25T23:14:47.633Z,4.45
2022-12-25T23:17:36.720Z,4.52
2022-12-25T23:20:25.140Z,4.35
2022-12-25T23:23:12.944Z,4.27
2022-12-25T23:26:00.177Z,4.00
2022-12-25T23:28:47.624Z,4.19
2022-12-25T23:31:17.717Z,4.24
2022-12-25T23:33:50.377Z,4.11
2022-12-25T23:36:20.104Z,3.81
2022-12-25T23:38:50.131Z,3.97
2022-12-25T23:41:21.639Z,4.12
2022-12-25T23:43:51.469Z,3.99
2022-12-25T23:46:21.823Z,3.95
2022-12-25T23:48:53.109Z,4.23
2022-12-25T23:51:23.223Z,4.61
2022-12-25T23:53:53.257Z,4.18
2022-12-25T23:56:23.139Z,4.45
2022-12-25T23:58:53.681Z,4.14
